sensor_id;sensor_type;location;lat;lon;timestamp;pressure;altitude;pressure_sealevel;temperature;humidity
56040;BME280;43937;41.366;2.072;2023-04-03T00:00:46;101048.31;;;14.95;51.16
56040;BME280;43937;41.366;2.072;2023-04-03T00:03:12;101046.03;;;14.99;51.44
56040;BME280;43937;41.366;2.072;2023-04-03T00:05:37;101042.25;;;15.00;50.80
56040;BME280;43937;41.366;2.072;2023-04-03T00:08:03;101042.91;;;15.02;51.16
56040;BME280;43937;41.366;2.072;2023-04-03T00:12:12;100992.88;;;14.55;51.47
56040;BME280;43937;41.366;2.072;2023-04-03T00:14:51;101048.19;;;14.88;51.62
56040;BME280;43937;41.366;2.072;2023-04-03T00:21:48;101024.28;;;14.68;52.60
56040;BME280;43937;41.366;2.072;2023-04-03T00:24:39;100972.31;;;14.36;53.04
56040;BME280;43937;41.366;2.072;2023-04-03T00:27:05;101038.63;;;14.70;53.62
56040;BME280;43937;41.366;2.072;2023-04-03T00:29:30;101039.97;;;14.74;53.73
56040;BME280;43937;41.366;2.072;2023-04-03T00:31:56;101040.34;;;14.71;53.87
56040;BME280;43937;41.366;2.072;2023-04-03T00:35:48;101037.59;;;14.71;54.04
56040;BME280;43937;41.366;2.072;2023-04-03T00:38:14;101017.34;;;14.57;53.33
56040;BME280;43937;41.366;2.072;2023-04-03T00:47:14;100985.16;;;14.36;54.91
56040;BME280;43937;41.366;2.072;2023-04-03T00:49:41;101027.00;;;14.68;55.40
56040;BME280;43937;41.366;2.072;2023-04-03T00:57:11;101014.66;;;14.49;56.14
56040;BME280;43937;41.366;2.072;2023-04-03T00:59:40;100994.81;;;14.47;56.25
56040;BME280;43937;41.366;2.072;2023-04-03T01:02:07;101019.03;;;14.58;56.85
56040;BME280;43937;41.366;2.072;2023-04-03T01:14:16;100972.41;;;14.43;57.05
56040;BME280;43937;41.366;2.072;2023-04-03T01:22:05;100985.72;;;14.46;57.55
56040;BME280;43937;41.366;2.072;2023-04-03T01:24:37;100980.63;;;14.43;56.57
56040;BME280;43937;41.366;2.072;2023-04-03T01:32:01;100971.09;;;14.39;55.06
56040;BME280;43937;41.366;2.072;2023-04-03T01:34:28;100964.19;;;14.43;54.35
56040;BME280;43937;41.366;2.072;2023-04-03T01:36:53;100966.28;;;14.41;54.23
56040;BME280;43937;41.366;2.072;2023-04-03T01:48:47;100959.56;;;14.29;51.69
56040;BME280;43937;41.366;2.072;2023-04-03T01:55:16;100892.34;;;13.88;50.96
56040;BME280;43937;41.366;2.072;2023-04-03T01:57:42;100962.84;;;14.24;50.44
56040;BME280;43937;41.366;2.072;2023-04-03T02:02:27;100962.00;;;14.24;50.25
56040;BME280;43937;41.366;2.072;2023-04-03T02:09:47;100927.84;;;13.96;49.75
56040;BME280;43937;41.366;2.072;2023-04-03T02:15:42;100963.84;;;14.08;49.13
56040;BME280;43937;41.366;2.072;2023-04-03T02:20:46;100960.44;;;14.06;48.46
56040;BME280;43937;41.366;2.072;2023-04-03T02:23:49;100923.69;;;13.86;48.00
56040;BME280;43937;41.366;2.072;2023-04-03T02:27:56;100913.75;;;13.85;47.90
56040;BME280;43937;41.366;2.072;2023-04-03T02:32:30;100921.53;;;13.96;47.40
56040;BME280;43937;41.366;2.072;2023-04-03T02:37:11;100910.16;;;13.84;47.09
56040;BME280;43937;41.366;2.072;2023-04-03T02:40:46;100894.38;;;13.71;47.06
56040;BME280;43937;41.366;2.072;2023-04-03T02:48:08;100906.06;;;13.65;47.16
56040;BME280;43937;41.366;2.072;2023-04-03T02:50:34;100914.25;;;13.65;46.93
56040;BME280;43937;41.366;2.072;2023-04-03T02:55:25;100873.22;;;13.42;47.08
56040;BME280;43937;41.366;2.072;2023-04-03T02:58:03;100896.63;;;13.45;46.64
56040;BME280;43937;41.366;2.072;2023-04-03T03:07:14;100892.72;;;13.39;46.69
56040;BME280;43937;41.366;2.072;2023-04-03T03:17:24;100859.28;;;12.98;47.33
56040;BME280;43937;41.366;2.072;2023-04-03T03:23:57;100901.69;;;13.25;47.99
56040;BME280;43937;41.366;2.072;2023-04-03T03:26:23;100909.63;;;13.12;48.24
56040;BME280;43937;41.366;2.072;2023-04-03T03:33:24;100900.63;;;12.95;47.95
56040;BME280;43937;41.366;2.072;2023-04-03T03:40:39;100890.75;;;12.94;48.64
56040;BME280;43937;41.366;2.072;2023-04-03T03:49:23;100890.75;;;12.94;48.48
56040;BME280;43937;41.366;2.072;2023-04-03T03:52:03;100872.09;;;12.66;48.41
56040;BME280;43937;41.366;2.072;2023-04-03T03:56:37;100817.94;;;12.38;48.33
56040;BME280;43937;41.366;2.072;2023-04-03T04:10:49;100885.38;;;12.77;48.58
56040;BME280;43937;41.366;2.072;2023-04-03T04:13:14;100880.78;;;12.70;47.91
56040;BME280;43937;41.366;2.072;2023-04-03T04:17:21;100817.09;;;12.38;48.40
56040;BME280;43937;41.366;2.072;2023-04-03T04:19:47;100855.59;;;12.59;48.37
56040;BME280;43937;41.366;2.072;2023-04-03T04:27:28;100864.78;;;12.58;48.67
56040;BME280;43937;41.366;2.072;2023-04-03T04:35:22;100869.44;;;12.50;48.68
56040;BME280;43937;41.366;2.072;2023-04-03T04:37:48;100814.59;;;12.20;49.16
56040;BME280;43937;41.366;2.072;2023-04-03T04:42:29;100824.81;;;12.26;49.09
56040;BME280;43937;41.366;2.072;2023-04-03T04:46:35;100862.81;;;12.36;49.73
56040;BME280;43937;41.366;2.072;2023-04-03T04:53:55;100818.41;;;12.03;49.40
56040;BME280;43937;41.366;2.072;2023-04-03T05:01:13;100818.25;;;12.04;49.30
56040;BME280;43937;41.366;2.072;2023-04-03T05:07:12;100846.34;;;12.13;49.83
56040;BME280;43937;41.366;2.072;2023-04-03T05:13:57;100865.28;;;12.14;49.78
56040;BME280;43937;41.366;2.072;2023-04-03T05:16:22;100844.34;;;11.99;50.00
56040;BME280;43937;41.366;2.072;2023-04-03T05:22:32;100877.38;;;12.12;50.41
56040;BME280;43937;41.366;2.072;2023-04-03T05:24:58;100859.97;;;12.21;49.51
56040;BME280;43937;41.366;2.072;2023-04-03T05:27:23;100864.28;;;11.99;50.51
56040;BME280;43937;41.366;2.072;2023-04-03T05:45:28;100903.47;;;12.23;49.05
56040;BME280;43937;41.366;2.072;2023-04-03T05:50:21;100884.88;;;12.26;49.34
56040;BME280;43937;41.366;2.072;2023-04-03T06:03:28;100903.56;;;12.54;49.17
56040;BME280;43937;41.366;2.072;2023-04-03T06:07:32;100849.91;;;12.22;49.03
56040;BME280;43937;41.366;2.072;2023-04-03T06:11:31;100900.34;;;12.34;48.86
56040;BME280;43937;41.366;2.072;2023-04-03T06:14:54;100889.97;;;12.37;49.36
56040;BME280;43937;41.366;2.072;2023-04-03T06:18:40;100864.03;;;12.33;49.00
56040;BME280;43937;41.366;2.072;2023-04-03T06:21:06;100918.19;;;12.69;48.73
56040;BME280;43937;41.366;2.072;2023-04-03T06:24:44;100834.38;;;12.22;48.61
56040;BME280;43937;41.366;2.072;2023-04-03T06:33:35;100869.66;;;18.38;36.72
56040;BME280;43937;41.366;2.072;2023-04-03T06:36:04;100924.34;;;20.27;33.79
56040;BME280;43937;41.366;2.072;2023-04-03T06:42:27;100929.25;;;18.32;37.23
56040;BME280;43937;41.366;2.072;2023-04-03T06:53:05;100918.09;;;24.40;26.95
56040;BME280;43937;41.366;2.072;2023-04-03T06:55:32;100890.13;;;23.96;27.05
56040;BME280;43937;41.366;2.072;2023-04-03T06:59:04;100921.81;;;24.62;26.86
56040;BME280;43937;41.366;2.072;2023-04-03T07:04:41;100914.09;;;25.52;25.06
56040;BME280;43937;41.366;2.072;2023-04-03T07:07:43;100919.31;;;26.30;24.06
56040;BME280;43937;41.366;2.072;2023-04-03T07:13:13;100928.19;;;26.54;23.49
56040;BME280;43937;41.366;2.072;2023-04-03T07:18:28;100924.50;;;27.59;22.47
56040;BME280;43937;41.366;2.072;2023-04-03T07:26:52;100898.78;;;27.57;21.89
56040;BME280;43937;41.366;2.072;2023-04-03T07:33:39;100939.16;;;28.12;21.67
56040;BME280;43937;41.366;2.072;2023-04-03T07:36:06;100940.97;;;27.55;22.00
56040;BME280;43937;41.366;2.072;2023-04-03T07:43:54;100926.53;;;28.71;21.30
56040;BME280;43937;41.366;2.072;2023-04-03T07:49:24;100933.34;;;29.35;19.87
56040;BME280;43937;41.366;2.072;2023-04-03T07:52:37;100937.94;;;28.95;19.73
56040;BME280;43937;41.366;2.072;2023-04-03T08:00:02;100919.56;;;28.12;20.90
56040;BME280;43937;41.366;2.072;2023-04-03T08:10:52;100955.97;;;30.03;19.40
56040;BME280;43937;41.366;2.072;2023-04-03T08:19:50;100911.84;;;29.15;19.18
56040;BME280;43937;41.366;2.072;2023-04-03T08:26:49;100920.03;;;30.05;18.50
56040;BME280;43937;41.366;2.072;2023-04-03T08:35:10;100923.44;;;30.66;18.46
56040;BME280;43937;41.366;2.072;2023-04-03T08:38:49;100916.03;;;30.75;18.18
56040;BME280;43937;41.366;2.072;2023-04-03T08:43:36;100907.72;;;30.35;18.61
56040;BME280;43937;41.366;2.072;2023-04-03T08:46:11;100908.22;;;30.08;18.86
56040;BME280;43937;41.366;2.072;2023-04-03T08:50:31;100910.78;;;29.65;18.71
56040;BME280;43937;41.366;2.072;2023-04-03T08:55:50;100904.94;;;27.64;20.94
56040;BME280;43937;41.366;2.072;2023-04-03T09:24:01;100887.56;;;23.20;27.04
56040;BME280;43937;41.366;2.072;2023-04-03T09:30:56;100892.69;;;21.82;28.06
56040;BME280;43937;41.366;2.072;2023-04-03T09:33:22;100898.16;;;22.12;27.67
56040;BME280;43937;41.366;2.072;2023-04-03T10:03:29;100863.78;;;22.72;26.91
56040;BME280;43937;41.366;2.072;2023-04-03T10:06:03;100869.94;;;23.26;26.42
56040;BME280;43937;41.366;2.072;2023-04-03T10:08:30;100869.22;;;22.08;28.64
56040;BME280;43937;41.366;2.072;2023-04-03T10:19:47;100861.66;;;21.32;33.13
56040;BME280;43937;41.366;2.072;2023-04-03T10:30:46;100856.53;;;21.17;34.88
56040;BME280;43937;41.366;2.072;2023-04-03T11:03:54;100825.66;;;21.32;35.47
56040;BME280;43937;41.366;2.072;2023-04-03T11:06:25;100818.44;;;21.84;34.23
56040;BME280;43937;41.366;2.072;2023-04-03T11:09:27;100810.00;;;21.56;34.31
56040;BME280;43937;41.366;2.072;2023-04-03T11:15:12;100795.72;;;21.94;33.71
56040;BME280;43937;41.366;2.072;2023-04-03T11:28:05;100788.34;;;22.47;33.56
56040;BME280;43937;41.366;2.072;2023-04-03T11:40:30;100776.19;;;22.01;33.60
56040;BME280;43937;41.366;2.072;2023-04-03T12:08:15;100761.34;;;21.60;34.27
56040;BME280;43937;41.366;2.072;2023-04-03T12:14:40;100761.81;;;21.57;34.12
56040;BME280;43937;41.366;2.072;2023-04-03T12:17:29;100764.84;;;21.55;34.75
56040;BME280;43937;41.366;2.072;2023-04-03T12:24:51;100755.91;;;21.53;33.56
56040;BME280;43937;41.366;2.072;2023-04-03T12:35:35;100739.19;;;22.30;33.49
56040;BME280;43937;41.366;2.072;2023-04-03T12:51:14;100708.69;;;21.48;34.55
56040;BME280;43937;41.366;2.072;2023-04-03T12:53:42;100662.00;;;21.52;33.52
56040;BME280;43937;41.366;2.072;2023-04-03T12:56:30;100682.09;;;21.47;33.82
56040;BME280;43937;41.366;2.072;2023-04-03T13:06:03;100700.63;;;21.93;35.29
56040;BME280;43937;41.366;2.072;2023-04-03T13:08:56;100667.91;;;21.67;35.23
56040;BME280;43937;41.366;2.072;2023-04-03T13:18:40;100702.97;;;21.08;37.56
56040;BME280;43937;41.366;2.072;2023-04-03T13:26:25;100697.16;;;20.97;37.26
56040;BME280;43937;41.366;2.072;2023-04-03T13:48:18;100674.84;;;20.80;39.90
56040;BME280;43937;41.366;2.072;2023-04-03T13:57:22;100666.94;;;20.96;38.71
56040;BME280;43937;41.366;2.072;2023-04-03T14:08:48;100681.28;;;20.63;39.05
56040;BME280;43937;41.366;2.072;2023-04-03T14:12:30;100635.44;;;19.70;39.55
56040;BME280;43937;41.366;2.072;2023-04-03T14:17:18;100676.22;;;20.41;38.53
56040;BME280;43937;41.366;2.072;2023-04-03T14:22:44;100659.53;;;19.81;39.19
56040;BME280;43937;41.366;2.072;2023-04-03T14:27:39;100628.13;;;19.13;39.91
56040;BME280;43937;41.366;2.072;2023-04-03T14:30:20;100660.53;;;19.68;39.92
56040;BME280;43937;41.366;2.072;2023-04-03T14:35:23;100657.84;;;19.80;37.92
56040;BME280;43937;41.366;2.072;2023-04-03T14:38:53;100596.25;;;18.92;39.65
56040;BME280;43937;41.366;2.072;2023-04-03T14:48:27;100650.78;;;19.84;38.10
56040;BME280;43937;41.366;2.072;2023-04-03T14:50:54;100635.13;;;19.96;38.76
56040;BME280;43937;41.366;2.072;2023-04-03T14:53:20;100594.84;;;19.52;39.97
56040;BME280;43937;41.366;2.072;2023-04-03T14:56:16;100622.72;;;19.25;39.57
56040;BME280;43937;41.366;2.072;2023-04-03T15:11:42;100618.78;;;19.58;39.44
56040;BME280;43937;41.366;2.072;2023-04-03T15:16:32;100586.91;;;19.18;41.34
56040;BME280;43937;41.366;2.072;2023-04-03T15:18:58;100574.78;;;18.69;41.95
56040;BME280;43937;41.366;2.072;2023-04-03T15:21:23;100609.44;;;19.15;41.85
56040;BME280;43937;41.366;2.072;2023-04-03T15:23:49;100620.34;;;19.29;42.62
56040;BME280;43937;41.366;2.072;2023-04-03T15:28:43;100613.72;;;18.86;43.95
56040;BME280;43937;41.366;2.072;2023-04-03T15:39:31;100537.31;;;18.37;45.43
56040;BME280;43937;41.366;2.072;2023-04-03T15:45:35;100568.41;;;18.69;44.86
56040;BME280;43937;41.366;2.072;2023-04-03T15:51:15;100599.44;;;18.58;43.98
56040;BME280;43937;41.366;2.072;2023-04-03T16:00:48;100576.72;;;18.37;43.45
56040;BME280;43937;41.366;2.072;2023-04-03T16:04:39;100589.25;;;18.65;42.69
56040;BME280;43937;41.366;2.072;2023-04-03T16:10:21;100590.28;;;18.95;41.35
56040;BME280;43937;41.366;2.072;2023-04-03T16:13:22;100583.88;;;18.76;41.34
56040;BME280;43937;41.366;2.072;2023-04-03T16:16:41;100592.19;;;18.70;41.10
56040;BME280;43937;41.366;2.072;2023-04-03T16:19:37;100588.28;;;18.52;41.76
56040;BME280;43937;41.366;2.072;2023-04-03T16:25:57;100594.28;;;18.74;42.36
56040;BME280;43937;41.366;2.072;2023-04-03T16:37:12;100590.19;;;18.52;41.36
56040;BME280;43937;41.366;2.072;2023-04-03T16:46:40;100588.41;;;18.64;41.31
56040;BME280;43937;41.366;2.072;2023-04-03T16:52:01;100585.00;;;18.62;41.59
56040;BME280;43937;41.366;2.072;2023-04-03T16:56:20;100593.69;;;17.96;43.41
56040;BME280;43937;41.366;2.072;2023-04-03T17:00:22;100592.16;;;18.00;43.02
56040;BME280;43937;41.366;2.072;2023-04-03T17:05:01;100603.00;;;17.95;43.91
56040;BME280;43937;41.366;2.072;2023-04-03T17:12:15;100598.38;;;17.89;43.96
56040;BME280;43937;41.366;2.072;2023-04-03T17:14:41;100585.13;;;17.59;43.54
56040;BME280;43937;41.366;2.072;2023-04-03T17:20:26;100583.84;;;17.55;44.12
56040;BME280;43937;41.366;2.072;2023-04-03T17:22:52;100596.13;;;17.59;44.22
56040;BME280;43937;41.366;2.072;2023-04-03T17:27:17;100588.06;;;17.64;44.39
56040;BME280;43937;41.366;2.072;2023-04-03T17:36:30;100588.56;;;17.21;46.18
56040;BME280;43937;41.366;2.072;2023-04-03T17:47:19;100534.22;;;16.70;47.96
56040;BME280;43937;41.366;2.072;2023-04-03T17:52:21;100583.56;;;16.91;49.27
56040;BME280;43937;41.366;2.072;2023-04-03T18:00:30;100583.94;;;16.62;50.04
56040;BME280;43937;41.366;2.072;2023-04-03T18:03:08;100583.50;;;16.58;50.88
56040;BME280;43937;41.366;2.072;2023-04-03T18:11:24;100586.38;;;16.10;52.91
56040;BME280;43937;41.366;2.072;2023-04-03T18:14:45;100580.47;;;16.26;52.49
56040;BME280;43937;41.366;2.072;2023-04-03T18:23:05;100554.41;;;15.89;53.48
56040;BME280;43937;41.366;2.072;2023-04-03T18:30:49;100587.66;;;16.21;54.60
56040;BME280;43937;41.366;2.072;2023-04-03T18:34:44;100601.38;;;16.21;54.69
56040;BME280;43937;41.366;2.072;2023-04-03T18:38:41;100602.34;;;15.93;55.88
56040;BME280;43937;41.366;2.072;2023-04-03T18:44:19;100613.34;;;16.00;55.17
56040;BME280;43937;41.366;2.072;2023-04-03T18:52:29;100624.75;;;15.97;55.22
56040;BME280;43937;41.366;2.072;2023-04-03T18:54:55;100593.41;;;15.71;55.52
56040;BME280;43937;41.366;2.072;2023-04-03T19:06:51;100649.59;;;15.82;56.93
56040;BME280;43937;41.366;2.072;2023-04-03T19:09:29;100652.78;;;15.86;57.21
56040;BME280;43937;41.366;2.072;2023-04-03T19:16:19;100646.44;;;15.50;58.82
56040;BME280;43937;41.366;2.072;2023-04-03T19:18:44;100635.66;;;15.49;58.30
56040;BME280;43937;41.366;2.072;2023-04-03T19:25:06;100645.63;;;15.56;58.63
56040;BME280;43937;41.366;2.072;2023-04-03T19:29:11;100641.38;;;15.54;59.02
56040;BME280;43937;41.366;2.072;2023-04-03T19:31:37;100660.63;;;15.61;59.14
56040;BME280;43937;41.366;2.072;2023-04-03T19:34:29;100633.13;;;15.47;58.74
56040;BME280;43937;41.366;2.072;2023-04-03T19:36:55;100658.28;;;15.57;59.23
56040;BME280;43937;41.366;2.072;2023-04-03T19:40:40;100660.09;;;15.72;59.35
56040;BME280;43937;41.366;2.072;2023-04-03T19:44:21;100658.31;;;15.64;59.18
56040;BME280;43937;41.366;2.072;2023-04-03T19:46:46;100644.75;;;15.49;59.49
56040;BME280;43937;41.366;2.072;2023-04-03T19:51:29;100660.81;;;15.52;60.49
56040;BME280;43937;41.366;2.072;2023-04-03T19:57:57;100666.63;;;15.43;61.02
56040;BME280;43937;41.366;2.072;2023-04-03T20:06:21;100622.06;;;15.34;60.80
56040;BME280;43937;41.366;2.072;2023-04-03T20:15:48;100637.81;;;15.25;61.09
56040;BME280;43937;41.366;2.072;2023-04-03T20:21:31;100667.72;;;15.48;61.43
56040;BME280;43937;41.366;2.072;2023-04-03T20:26:23;100663.72;;;15.51;60.82
56040;BME280;43937;41.366;2.072;2023-04-03T20:31:52;100669.03;;;15.52;60.27
56040;BME280;43937;41.366;2.072;2023-04-03T20:34:28;100671.38;;;15.55;60.81
56040;BME280;43937;41.366;2.072;2023-04-03T20:37:07;100672.66;;;15.60;60.09
56040;BME280;43937;41.366;2.072;2023-04-03T20:45:22;100655.47;;;15.44;60.39
56040;BME280;43937;41.366;2.072;2023-04-03T20:50:00;100640.88;;;15.37;60.91
56040;BME280;43937;41.366;2.072;2023-04-03T20:57:24;100661.75;;;15.38;62.09
56040;BME280;43937;41.366;2.072;2023-04-03T21:04:34;100657.31;;;15.37;61.45
56040;BME280;43937;41.366;2.072;2023-04-03T21:21:43;100639.25;;;14.93;62.82
56040;BME280;43937;41.366;2.072;2023-04-03T21:24:11;100663.88;;;15.15;62.44
56040;BME280;43937;41.366;2.072;2023-04-03T21:26:37;100658.06;;;15.24;62.44
56040;BME280;43937;41.366;2.072;2023-04-03T21:35:40;100645.88;;;15.05;63.16
56040;BME280;43937;41.366;2.072;2023-04-03T21:39:07;100647.59;;;14.85;63.07
56040;BME280;43937;41.366;2.072;2023-04-03T21:44:13;100608.63;;;14.61;62.79
56040;BME280;43937;41.366;2.072;2023-04-03T21:50:21;100642.34;;;14.83;62.79
56040;BME280;43937;41.366;2.072;2023-04-03T21:53:54;100617.28;;;14.43;62.34
56040;BME280;43937;41.366;2.072;2023-04-03T21:57:08;100637.28;;;14.44;63.81
56040;BME280;43937;41.366;2.072;2023-04-03T21:59:36;100633.88;;;14.42;63.60
56040;BME280;43937;41.366;2.072;2023-04-03T22:02:03;100620.84;;;14.44;63.18
56040;BME280;43937;41.366;2.072;2023-04-03T22:05:36;100621.97;;;14.50;62.59
56040;BME280;43937;41.366;2.072;2023-04-03T22:11:36;100608.75;;;14.53;62.83
56040;BME280;43937;41.366;2.072;2023-04-03T22:14:02;100545.00;;;14.02;62.62
56040;BME280;43937;41.366;2.072;2023-04-03T22:17:11;100624.38;;;14.38;64.08
56040;BME280;43937;41.366;2.072;2023-04-03T22:22:27;100569.13;;;13.77;64.23
56040;BME280;43937;41.366;2.072;2023-04-03T22:26:48;100614.66;;;13.99;63.59
56040;BME280;43937;41.366;2.072;2023-04-03T22:33:27;100599.84;;;13.93;61.09
56040;BME280;43937;41.366;2.072;2023-04-03T22:38:06;100616.16;;;14.02;60.68
56040;BME280;43937;41.366;2.072;2023-04-03T22:40:31;100625.50;;;14.07;60.76
56040;BME280;43937;41.366;2.072;2023-04-03T22:47:49;100621.50;;;14.10;60.73
56040;BME280;43937;41.366;2.072;2023-04-03T22:53:29;100538.81;;;13.57;61.05
56040;BME280;43937;41.366;2.072;2023-04-03T23:03:17;100616.38;;;13.85;63.29
56040;BME280;43937;41.366;2.072;2023-04-03T23:07:55;100597.47;;;13.39;64.70
56040;BME280;43937;41.366;2.072;2023-04-03T23:10:21;100568.47;;;13.15;64.24
56040;BME280;43937;41.366;2.072;2023-04-03T23:12:46;100571.50;;;13.05;63.78
56040;BME280;43937;41.366;2.072;2023-04-03T23:15:12;100621.69;;;13.27;64.16
56040;BME280;43937;41.366;2.072;2023-04-03T23:25:29;100631.38;;;13.30;64.44
56040;BME280;43937;41.366;2.072;2023-04-03T23:28:10;100627.47;;;13.24;63.59
56040;BME280;43937;41.366;2.072;2023-04-03T23:30:35;100627.13;;;13.27;64.15
56040;BME280;43937;41.366;2.072;2023-04-03T23:41:14;100604.66;;;13.02;64.03
56040;BME280;43937;41.366;2.072;2023-04-03T23:43:40;100617.50;;;13.17;63.63
56040;BME280;43937;41.366;2.072;2023-04-03T23:50:52;100612.13;;;13.09;62.66
